sensor_id;sensor_type;location;lat;lon;timestamp;pressure;altitude;pressure_sealevel;temperature;humidity
59367;BME280;45163;47.690;11.770;2023-08-20T00:00:29;93783.91;;;19.20;100.00
59367;BME280;45163;47.690;11.770;2023-08-20T00:02:59;93787.81;;;19.13;100.00
59367;BME280;45163;47.690;11.770;2023-08-20T00:05:30;93779.59;;;18.89;100.00
59367;BME280;45163;47.690;11.770;2023-08-20T00:07:56;93781.41;;;18.77;100.00
59367;BME280;45163;47.690;11.770;2023-08-20T00:10:22;93779.88;;;18.76;100.00
59367;BME280;45163;47.690;11.770;2023-08-20T00:12:48;93776.75;;;18.83;100.00
59367;BME280;45163;47.690;11.770;2023-08-20T00:15:14;93776.56;;;18.87;100.00
59367;BME280;45163;47.690;11.770;2023-08-20T00:17:40;93778.06;;;18.88;100.00
59367;BME280;45163;47.690;11.770;2023-08-20T00:20:09;93766.81;;;18.91;100.00
59367;BME280;45163;47.690;11.770;2023-08-20T00:22:42;93773.19;;;18.98;100.00
59367;BME280;45163;47.690;11.770;2023-08-20T00:25:11;93772.16;;;19.10;100.00
59367;BME280;45163;47.690;11.770;2023-08-20T00:27:39;93765.47;;;19.16;100.00
59367;BME280;45163;47.690;11.770;2023-08-20T00:30:06;93766.72;;;19.15;100.00
59367;BME280;45163;47.690;11.770;2023-08-20T00:32:32;93762.97;;;19.19;100.00
59367;BME280;45163;47.690;11.770;2023-08-20T00:34:58;93766.22;;;19.17;100.00
59367;BME280;45163;47.690;11.770;2023-08-20T00:37:25;93772.63;;;19.08;100.00
59367;BME280;45163;47.690;11.770;2023-08-20T00:39:51;93774.72;;;19.13;100.00
59367;BME280;45163;47.690;11.770;2023-08-20T00:42:17;93775.03;;;19.15;100.00
59367;BME280;45163;47.690;11.770;2023-08-20T00:44:43;93767.75;;;19.18;100.00
59367;BME280;45163;47.690;11.770;2023-08-20T00:47:12;93772.41;;;19.27;100.00
59367;BME280;45163;47.690;11.770;2023-08-20T00:49:39;93766.88;;;19.27;100.00
59367;BME280;45163;47.690;11.770;2023-08-20T00:52:08;93766.97;;;19.32;100.00
59367;BME280;45163;47.690;11.770;2023-08-20T00:54:34;93764.78;;;19.36;100.00
59367;BME280;45163;47.690;11.770;2023-08-20T00:57:01;93766.22;;;19.32;100.00
59367;BME280;45163;47.690;11.770;2023-08-20T00:59:32;93761.44;;;19.32;100.00
59367;BME280;45163;47.690;11.770;2023-08-20T01:01:58;93763.91;;;19.30;100.00
59367;BME280;45163;47.690;11.770;2023-08-20T01:04:24;93774.81;;;19.04;100.00
59367;BME280;45163;47.690;11.770;2023-08-20T01:07:04;93768.72;;;19.00;100.00
59367;BME280;45163;47.690;11.770;2023-08-20T01:12:00;93771.00;;;18.72;100.00
59367;BME280;45163;47.690;11.770;2023-08-20T01:14:28;93772.63;;;18.79;100.00
59367;BME280;45163;47.690;11.770;2023-08-20T01:16:54;93769.38;;;18.80;100.00
59367;BME280;45163;47.690;11.770;2023-08-20T01:19:21;93769.88;;;18.79;100.00
59367;BME280;45163;47.690;11.770;2023-08-20T01:24:48;93775.78;;;18.72;100.00
59367;BME280;45163;47.690;11.770;2023-08-20T01:29:46;93787.19;;;18.64;100.00
59367;BME280;45163;47.690;11.770;2023-08-20T01:32:12;93786.50;;;18.55;100.00
59367;BME280;45163;47.690;11.770;2023-08-20T01:34:39;93789.16;;;18.49;100.00
59367;BME280;45163;47.690;11.770;2023-08-20T01:37:05;93795.06;;;18.42;100.00
59367;BME280;45163;47.690;11.770;2023-08-20T01:39:31;93787.91;;;18.35;100.00
59367;BME280;45163;47.690;11.770;2023-08-20T01:41:57;93793.47;;;18.26;100.00
59367;BME280;45163;47.690;11.770;2023-08-20T01:44:23;93796.63;;;18.19;100.00
59367;BME280;45163;47.690;11.770;2023-08-20T01:46:49;93793.56;;;18.17;100.00
59367;BME280;45163;47.690;11.770;2023-08-20T01:49:15;93788.16;;;18.23;100.00
59367;BME280;45163;47.690;11.770;2023-08-20T01:51:41;93785.41;;;18.23;100.00
59367;BME280;45163;47.690;11.770;2023-08-20T01:54:07;93781.00;;;18.31;100.00
59367;BME280;45163;47.690;11.770;2023-08-20T01:56:33;93785.16;;;18.35;100.00
59367;BME280;45163;47.690;11.770;2023-08-20T01:58:59;93784.19;;;18.38;100.00
59367;BME280;45163;47.690;11.770;2023-08-20T02:01:25;93783.91;;;18.36;100.00
59367;BME280;45163;47.690;11.770;2023-08-20T02:03:51;93787.44;;;18.37;100.00
59367;BME280;45163;47.690;11.770;2023-08-20T02:06:17;93784.59;;;18.46;100.00
59367;BME280;45163;47.690;11.770;2023-08-20T02:08:43;93789.00;;;18.53;100.00
59367;BME280;45163;47.690;11.770;2023-08-20T02:11:08;93792.50;;;18.53;100.00
59367;BME280;45163;47.690;11.770;2023-08-20T02:13:34;93782.41;;;18.50;100.00
59367;BME280;45163;47.690;11.770;2023-08-20T02:16:01;93784.97;;;18.54;100.00
59367;BME280;45163;47.690;11.770;2023-08-20T02:18:29;93791.03;;;18.28;100.00
59367;BME280;45163;47.690;11.770;2023-08-20T02:20:55;93791.09;;;18.19;100.00
59367;BME280;45163;47.690;11.770;2023-08-20T02:23:21;93785.56;;;18.19;100.00
59367;BME280;45163;47.690;11.770;2023-08-20T02:25:47;93788.97;;;18.14;100.00
59367;BME280;45163;47.690;11.770;2023-08-20T02:28:14;93784.84;;;18.09;100.00
59367;BME280;45163;47.690;11.770;2023-08-20T02:30:44;93785.88;;;17.97;100.00
59367;BME280;45163;47.690;11.770;2023-08-20T02:33:11;93793.03;;;18.04;100.00
59367;BME280;45163;47.690;11.770;2023-08-20T02:35:37;93794.34;;;17.94;100.00
59367;BME280;45163;47.690;11.770;2023-08-20T02:38:05;93789.00;;;17.90;100.00
59367;BME280;45163;47.690;11.770;2023-08-20T02:40:31;93793.19;;;17.85;100.00
59367;BME280;45163;47.690;11.770;2023-08-20T02:42:57;93789.16;;;17.86;100.00
59367;BME280;45163;47.690;11.770;2023-08-20T02:45:23;93786.91;;;17.76;100.00
59367;BME280;45163;47.690;11.770;2023-08-20T02:47:49;93794.91;;;17.74;100.00
59367;BME280;45163;47.690;11.770;2023-08-20T02:50:15;93796.75;;;17.67;100.00
59367;BME280;45163;47.690;11.770;2023-08-20T02:52:42;93785.25;;;17.69;100.00
59367;BME280;45163;47.690;11.770;2023-08-20T02:55:08;93791.34;;;17.82;100.00
59367;BME280;45163;47.690;11.770;2023-08-20T02:57:34;93801.75;;;17.87;100.00
59367;BME280;45163;47.690;11.770;2023-08-20T03:00:00;93804.31;;;17.91;100.00
59367;BME280;45163;47.690;11.770;2023-08-20T03:02:26;93803.63;;;17.81;100.00
59367;BME280;45163;47.690;11.770;2023-08-20T03:04:52;93802.66;;;17.84;100.00
59367;BME280;45163;47.690;11.770;2023-08-20T03:07:19;93797.34;;;17.81;100.00
59367;BME280;45163;47.690;11.770;2023-08-20T03:09:45;93801.06;;;17.68;100.00
59367;BME280;45163;47.690;11.770;2023-08-20T03:12:11;93806.00;;;17.64;100.00
59367;BME280;45163;47.690;11.770;2023-08-20T03:14:37;93812.72;;;17.63;100.00
59367;BME280;45163;47.690;11.770;2023-08-20T03:17:03;93805.50;;;17.66;100.00
59367;BME280;45163;47.690;11.770;2023-08-20T03:19:34;93809.09;;;17.57;100.00
59367;BME280;45163;47.690;11.770;2023-08-20T03:22:02;93809.91;;;17.49;100.00
59367;BME280;45163;47.690;11.770;2023-08-20T03:24:28;93813.25;;;17.53;100.00
59367;BME280;45163;47.690;11.770;2023-08-20T03:26:54;93810.94;;;17.51;100.00
59367;BME280;45163;47.690;11.770;2023-08-20T03:29:20;93815.88;;;17.47;100.00
59367;BME280;45163;47.690;11.770;2023-08-20T03:31:46;93820.63;;;17.47;100.00
59367;BME280;45163;47.690;11.770;2023-08-20T03:34:12;93819.09;;;17.46;100.00
59367;BME280;45163;47.690;11.770;2023-08-20T03:36:38;93817.31;;;17.33;100.00
59367;BME280;45163;47.690;11.770;2023-08-20T03:39:04;93816.72;;;17.29;100.00
59367;BME280;45163;47.690;11.770;2023-08-20T03:41:30;93823.44;;;17.37;100.00
59367;BME280;45163;47.690;11.770;2023-08-20T03:43:56;93821.44;;;17.38;100.00
59367;BME280;45163;47.690;11.770;2023-08-20T03:46:22;93817.69;;;17.50;100.00
59367;BME280;45163;47.690;11.770;2023-08-20T03:48:48;93819.19;;;17.60;100.00
59367;BME280;45163;47.690;11.770;2023-08-20T03:51:14;93824.06;;;17.65;100.00
59367;BME280;45163;47.690;11.770;2023-08-20T03:53:40;93820.84;;;17.67;100.00
59367;BME280;45163;47.690;11.770;2023-08-20T03:56:06;93829.09;;;17.76;100.00
59367;BME280;45163;47.690;11.770;2023-08-20T03:58:32;93822.78;;;17.85;100.00
59367;BME280;45163;47.690;11.770;2023-08-20T04:00:58;93815.06;;;17.89;100.00
59367;BME280;45163;47.690;11.770;2023-08-20T04:03:23;93819.38;;;17.90;100.00
59367;BME280;45163;47.690;11.770;2023-08-20T04:05:50;93822.00;;;17.84;100.00
59367;BME280;45163;47.690;11.770;2023-08-20T04:08:16;93821.13;;;17.78;100.00
59367;BME280;45163;47.690;11.770;2023-08-20T04:10:43;93820.19;;;17.72;100.00
59367;BME280;45163;47.690;11.770;2023-08-20T04:13:12;93823.44;;;17.71;100.00
59367;BME280;45163;47.690;11.770;2023-08-20T04:15:40;93827.25;;;17.73;100.00
59367;BME280;45163;47.690;11.770;2023-08-20T04:18:06;93822.84;;;17.66;100.00
59367;BME280;45163;47.690;11.770;2023-08-20T04:20:33;93836.34;;;17.64;100.00
59367;BME280;45163;47.690;11.770;2023-08-20T04:22:59;93828.25;;;17.61;100.00
59367;BME280;45163;47.690;11.770;2023-08-20T04:25:25;93835.63;;;17.55;100.00
59367;BME280;45163;47.690;11.770;2023-08-20T04:27:51;93832.75;;;17.49;100.00
59367;BME280;45163;47.690;11.770;2023-08-20T04:30:17;93832.13;;;17.45;100.00
59367;BME280;45163;47.690;11.770;2023-08-20T04:32:43;93827.41;;;17.36;100.00
59367;BME280;45163;47.690;11.770;2023-08-20T04:35:09;93834.63;;;17.34;100.00
59367;BME280;45163;47.690;11.770;2023-08-20T04:37:36;93830.66;;;17.26;100.00
59367;BME280;45163;47.690;11.770;2023-08-20T04:40:02;93836.34;;;17.22;100.00
59367;BME280;45163;47.690;11.770;2023-08-20T04:42:31;93836.78;;;17.30;100.00
59367;BME280;45163;47.690;11.770;2023-08-20T04:44:57;93835.84;;;17.33;100.00
59367;BME280;45163;47.690;11.770;2023-08-20T04:47:23;93845.81;;;17.39;100.00
59367;BME280;45163;47.690;11.770;2023-08-20T04:49:51;93843.47;;;17.47;100.00
59367;BME280;45163;47.690;11.770;2023-08-20T04:52:17;93844.03;;;17.60;100.00
59367;BME280;45163;47.690;11.770;2023-08-20T04:54:43;93841.84;;;17.74;100.00
59367;BME280;45163;47.690;11.770;2023-08-20T04:57:09;93843.28;;;17.93;100.00
59367;BME280;45163;47.690;11.770;2023-08-20T04:59:35;93843.94;;;18.12;100.00
59367;BME280;45163;47.690;11.770;2023-08-20T05:02:01;93839.50;;;18.14;100.00
59367;BME280;45163;47.690;11.770;2023-08-20T05:04:27;93841.28;;;18.17;100.00
59367;BME280;45163;47.690;11.770;2023-08-20T05:06:52;93847.31;;;18.16;100.00
59367;BME280;45163;47.690;11.770;2023-08-20T05:09:18;93852.94;;;18.22;100.00
59367;BME280;45163;47.690;11.770;2023-08-20T05:11:44;93850.41;;;18.33;100.00
59367;BME280;45163;47.690;11.770;2023-08-20T05:14:10;93850.91;;;18.46;100.00
59367;BME280;45163;47.690;11.770;2023-08-20T05:16:36;93851.69;;;18.47;100.00
59367;BME280;45163;47.690;11.770;2023-08-20T05:19:02;93850.25;;;18.51;100.00
59367;BME280;45163;47.690;11.770;2023-08-20T05:21:28;93856.69;;;18.57;100.00
59367;BME280;45163;47.690;11.770;2023-08-20T05:23:54;93855.69;;;18.70;100.00
59367;BME280;45163;47.690;11.770;2023-08-20T05:26:22;93852.38;;;18.95;100.00
59367;BME280;45163;47.690;11.770;2023-08-20T05:28:48;93857.16;;;19.09;100.00
59367;BME280;45163;47.690;11.770;2023-08-20T05:31:14;93852.41;;;19.25;100.00
59367;BME280;45163;47.690;11.770;2023-08-20T05:33:40;93853.06;;;19.49;100.00
59367;BME280;45163;47.690;11.770;2023-08-20T05:36:06;93854.75;;;19.76;100.00
59367;BME280;45163;47.690;11.770;2023-08-20T05:38:32;93857.00;;;20.07;100.00
59367;BME280;45163;47.690;11.770;2023-08-20T05:40:58;93847.09;;;20.21;100.00
59367;BME280;45163;47.690;11.770;2023-08-20T05:43:24;93849.38;;;20.23;100.00
59367;BME280;45163;47.690;11.770;2023-08-20T05:45:50;93848.41;;;20.46;100.00
59367;BME280;45163;47.690;11.770;2023-08-20T05:48:15;93845.66;;;20.67;100.00
59367;BME280;45163;47.690;11.770;2023-08-20T05:50:41;93843.59;;;20.61;100.00
59367;BME280;45163;47.690;11.770;2023-08-20T05:53:07;93851.84;;;20.56;100.00
59367;BME280;45163;47.690;11.770;2023-08-20T05:55:33;93850.69;;;20.48;100.00
59367;BME280;45163;47.690;11.770;2023-08-20T05:57:59;93844.47;;;20.32;100.00
59367;BME280;45163;47.690;11.770;2023-08-20T06:00:26;93842.66;;;20.29;100.00
59367;BME280;45163;47.690;11.770;2023-08-20T06:02:52;93843.81;;;20.23;100.00
59367;BME280;45163;47.690;11.770;2023-08-20T06:05:18;93843.56;;;20.21;100.00
59367;BME280;45163;47.690;11.770;2023-08-20T06:07:44;93849.81;;;20.56;100.00
59367;BME280;45163;47.690;11.770;2023-08-20T06:10:10;93854.13;;;20.57;100.00
59367;BME280;45163;47.690;11.770;2023-08-20T06:12:37;93853.22;;;20.66;100.00
59367;BME280;45163;47.690;11.770;2023-08-20T06:15:04;93855.78;;;21.16;100.00
59367;BME280;45163;47.690;11.770;2023-08-20T06:17:30;93850.53;;;21.81;100.00
59367;BME280;45163;47.690;11.770;2023-08-20T06:19:56;93850.28;;;22.65;100.00
59367;BME280;45163;47.690;11.770;2023-08-20T06:22:22;93844.94;;;23.38;100.00
59367;BME280;45163;47.690;11.770;2023-08-20T06:24:48;93843.19;;;23.97;100.00
59367;BME280;45163;47.690;11.770;2023-08-20T06:27:14;93836.31;;;24.03;100.00
59367;BME280;45163;47.690;11.770;2023-08-20T06:29:40;93835.97;;;24.52;100.00
59367;BME280;45163;47.690;11.770;2023-08-20T06:32:06;93829.94;;;25.00;100.00
59367;BME280;45163;47.690;11.770;2023-08-20T06:34:34;93836.31;;;25.42;100.00
59367;BME280;45163;47.690;11.770;2023-08-20T06:37:00;93831.38;;;25.54;100.00
59367;BME280;45163;47.690;11.770;2023-08-20T06:39:26;93824.34;;;26.07;100.00
59367;BME280;45163;47.690;11.770;2023-08-20T06:41:52;93829.44;;;26.33;100.00
59367;BME280;45163;47.690;11.770;2023-08-20T06:44:17;93828.19;;;26.53;100.00
59367;BME280;45163;47.690;11.770;2023-08-20T06:46:44;93821.47;;;27.24;100.00
59367;BME280;45163;47.690;11.770;2023-08-20T06:49:09;93822.97;;;27.44;100.00
59367;BME280;45163;47.690;11.770;2023-08-20T06:51:35;93813.28;;;27.26;100.00
59367;BME280;45163;47.690;11.770;2023-08-20T06:54:02;93814.66;;;28.03;97.99
59367;BME280;45163;47.690;11.770;2023-08-20T06:56:28;93815.72;;;28.00;98.18
59367;BME280;45163;47.690;11.770;2023-08-20T06:58:54;93814.03;;;28.23;92.93
59367;BME280;45163;47.690;11.770;2023-08-20T07:01:20;93811.78;;;28.35;94.56
59367;BME280;45163;47.690;11.770;2023-08-20T07:03:46;93824.94;;;28.14;93.43
59367;BME280;45163;47.690;11.770;2023-08-20T07:06:12;93809.53;;;28.60;94.42
59367;BME280;45163;47.690;11.770;2023-08-20T07:08:40;93815.47;;;28.70;84.63
59367;BME280;45163;47.690;11.770;2023-08-20T07:11:07;93819.72;;;29.24;89.92
59367;BME280;45163;47.690;11.770;2023-08-20T07:13:32;93818.69;;;29.14;88.19
59367;BME280;45163;47.690;11.770;2023-08-20T07:15:59;93817.63;;;29.72;86.22
59367;BME280;45163;47.690;11.770;2023-08-20T07:18:25;93818.44;;;30.22;86.10
59367;BME280;45163;47.690;11.770;2023-08-20T07:20:51;93822.75;;;30.44;83.65
59367;BME280;45163;47.690;11.770;2023-08-20T07:23:18;93817.41;;;30.90;83.72
59367;BME280;45163;47.690;11.770;2023-08-20T07:25:44;93818.75;;;31.33;81.14
59367;BME280;45163;47.690;11.770;2023-08-20T07:28:12;93819.34;;;31.03;80.66
59367;BME280;45163;47.690;11.770;2023-08-20T07:30:38;93823.75;;;31.19;79.17
59367;BME280;45163;47.690;11.770;2023-08-20T07:33:06;93824.56;;;31.94;78.66
59367;BME280;45163;47.690;11.770;2023-08-20T07:35:32;93823.06;;;32.23;75.16
59367;BME280;45163;47.690;11.770;2023-08-20T07:37:58;93827.00;;;32.36;75.38
59367;BME280;45163;47.690;11.770;2023-08-20T07:40:24;93823.03;;;32.62;78.20
59367;BME280;45163;47.690;11.770;2023-08-20T07:42:50;93821.88;;;32.80;75.85
59367;BME280;45163;47.690;11.770;2023-08-20T07:45:16;93822.63;;;32.81;73.79
59367;BME280;45163;47.690;11.770;2023-08-20T07:47:42;93821.59;;;33.16;73.46
59367;BME280;45163;47.690;11.770;2023-08-20T07:50:08;93822.59;;;33.44;72.56
59367;BME280;45163;47.690;11.770;2023-08-20T07:52:34;93816.66;;;33.25;72.73
59367;BME280;45163;47.690;11.770;2023-08-20T07:55:00;93817.94;;;33.71;66.95
59367;BME280;45163;47.690;11.770;2023-08-20T07:57:26;93818.19;;;33.18;63.22
59367;BME280;45163;47.690;11.770;2023-08-20T07:59:52;93819.91;;;33.13;67.19
59367;BME280;45163;47.690;11.770;2023-08-20T08:02:18;93825.13;;;33.32;65.13
59367;BME280;45163;47.690;11.770;2023-08-20T08:04:44;93821.06;;;33.91;65.76
59367;BME280;45163;47.690;11.770;2023-08-20T08:07:11;93820.34;;;33.50;53.89
59367;BME280;45163;47.690;11.770;2023-08-20T08:09:37;93823.91;;;34.16;62.20
59367;BME280;45163;47.690;11.770;2023-08-20T08:12:04;93826.94;;;34.60;58.11
59367;BME280;45163;47.690;11.770;2023-08-20T08:14:30;93821.47;;;34.62;56.66
59367;BME280;45163;47.690;11.770;2023-08-20T08:16:56;93825.28;;;35.00;55.47
59367;BME280;45163;47.690;11.770;2023-08-20T08:19:22;93828.03;;;34.65;58.32
59367;BME280;45163;47.690;11.770;2023-08-20T08:21:48;93831.25;;;34.19;53.91
59367;BME280;45163;47.690;11.770;2023-08-20T08:24:15;93838.00;;;34.91;57.48
59367;BME280;45163;47.690;11.770;2023-08-20T08:26:41;93834.84;;;34.87;54.90
59367;BME280;45163;47.690;11.770;2023-08-20T08:29:08;93836.16;;;34.86;56.04
59367;BME280;45163;47.690;11.770;2023-08-20T08:31:34;93837.84;;;35.06;56.82
59367;BME280;45163;47.690;11.770;2023-08-20T08:34:01;93844.19;;;35.32;53.12
59367;BME280;45163;47.690;11.770;2023-08-20T08:36:28;93836.75;;;34.17;56.92
59367;BME280;45163;47.690;11.770;2023-08-20T08:38:54;93845.34;;;34.94;60.47
59367;BME280;45163;47.690;11.770;2023-08-20T08:41:22;93839.47;;;34.57;49.48
59367;BME280;45163;47.690;11.770;2023-08-20T08:43:51;93850.72;;;35.25;51.74
59367;BME280;45163;47.690;11.770;2023-08-20T08:46:17;93844.91;;;35.94;52.53
59367;BME280;45163;47.690;11.770;2023-08-20T08:48:45;93852.53;;;35.47;46.78
59367;BME280;45163;47.690;11.770;2023-08-20T08:51:13;93834.00;;;36.64;46.18
59367;BME280;45163;47.690;11.770;2023-08-20T08:53:39;93844.31;;;36.23;48.95
59367;BME280;45163;47.690;11.770;2023-08-20T08:56:07;93838.63;;;37.54;48.32
59367;BME280;45163;47.690;11.770;2023-08-20T08:58:33;93840.63;;;36.86;46.86
59367;BME280;45163;47.690;11.770;2023-08-20T09:00:59;93840.25;;;37.48;42.08
59367;BME280;45163;47.690;11.770;2023-08-20T09:03:26;93841.50;;;38.55;38.48
59367;BME280;45163;47.690;11.770;2023-08-20T09:05:57;93844.28;;;37.74;38.66
59367;BME280;45163;47.690;11.770;2023-08-20T09:08:29;93840.50;;;38.00;39.80
59367;BME280;45163;47.690;11.770;2023-08-20T09:10:57;93850.09;;;38.05;39.24
59367;BME280;45163;47.690;11.770;2023-08-20T09:13:36;93840.09;;;38.35;35.64
59367;BME280;45163;47.690;11.770;2023-08-20T09:16:04;93840.97;;;38.69;35.51
59367;BME280;45163;47.690;11.770;2023-08-20T09:18:32;93854.31;;;37.36;37.05
59367;BME280;45163;47.690;11.770;2023-08-20T09:20:58;93855.75;;;38.15;37.30
59367;BME280;45163;47.690;11.770;2023-08-20T09:23:28;93851.44;;;37.94;36.56
59367;BME280;45163;47.690;11.770;2023-08-20T09:25:55;93854.75;;;38.51;33.49
59367;BME280;45163;47.690;11.770;2023-08-20T09:28:21;93845.59;;;38.74;32.12
59367;BME280;45163;47.690;11.770;2023-08-20T09:30:58;93845.91;;;38.78;28.55
59367;BME280;45163;47.690;11.770;2023-08-20T09:33:24;93849.94;;;38.03;31.00
59367;BME280;45163;47.690;11.770;2023-08-20T09:35:51;93840.56;;;38.22;30.20
59367;BME280;45163;47.690;11.770;2023-08-20T09:38:20;93845.34;;;38.39;33.09
59367;BME280;45163;47.690;11.770;2023-08-20T09:40:51;93851.63;;;38.68;33.58
59367;BME280;45163;47.690;11.770;2023-08-20T09:43:19;93839.78;;;39.15;33.19
59367;BME280;45163;47.690;11.770;2023-08-20T09:45:49;93847.94;;;39.08;31.82
59367;BME280;45163;47.690;11.770;2023-08-20T09:48:19;93844.28;;;39.39;29.96
59367;BME280;45163;47.690;11.770;2023-08-20T09:50:51;93838.06;;;38.78;28.55
59367;BME280;45163;47.690;11.770;2023-08-20T09:53:37;93843.88;;;39.33;29.64
59367;BME280;45163;47.690;11.770;2023-08-20T09:56:21;93834.44;;;39.09;35.22
59367;BME280;45163;47.690;11.770;2023-08-20T09:58:50;93834.69;;;40.01;31.22
59367;BME280;45163;47.690;11.770;2023-08-20T10:01:17;93834.03;;;39.57;32.99
59367;BME280;45163;47.690;11.770;2023-08-20T10:03:43;93831.97;;;40.03;32.80
59367;BME280;45163;47.690;11.770;2023-08-20T10:06:11;93828.06;;;40.67;28.02
59367;BME280;45163;47.690;11.770;2023-08-20T10:08:37;93830.31;;;40.68;28.51
59367;BME280;45163;47.690;11.770;2023-08-20T10:11:04;93830.19;;;39.53;28.75
59367;BME280;45163;47.690;11.770;2023-08-20T10:13:30;93835.81;;;40.07;31.06
59367;BME280;45163;47.690;11.770;2023-08-20T10:15:56;93825.47;;;39.91;30.85
59367;BME280;45163;47.690;11.770;2023-08-20T10:18:22;93826.91;;;40.72;29.74
59367;BME280;45163;47.690;11.770;2023-08-20T10:20:52;93825.06;;;40.76;28.78
59367;BME280;45163;47.690;11.770;2023-08-20T10:23:21;93817.25;;;41.89;24.55
59367;BME280;45163;47.690;11.770;2023-08-20T10:25:53;93818.16;;;41.54;26.95
59367;BME280;45163;47.690;11.770;2023-08-20T10:28:25;93815.59;;;40.74;27.40
59367;BME280;45163;47.690;11.770;2023-08-20T10:31:08;93821.66;;;40.09;28.93
59367;BME280;45163;47.690;11.770;2023-08-20T10:36:08;93818.72;;;40.43;30.97
59367;BME280;45163;47.690;11.770;2023-08-20T10:38:38;93816.09;;;40.58;29.58
59367;BME280;45163;47.690;11.770;2023-08-20T10:41:08;93814.72;;;40.83;28.19
59367;BME280;45163;47.690;11.770;2023-08-20T10:43:37;93816.34;;;40.63;26.58
59367;BME280;45163;47.690;11.770;2023-08-20T10:48:39;93813.44;;;41.10;25.11
59367;BME280;45163;47.690;11.770;2023-08-20T10:51:14;93813.69;;;41.14;25.64
59367;BME280;45163;47.690;11.770;2023-08-20T10:53:42;93812.59;;;40.83;25.18
59367;BME280;45163;47.690;11.770;2023-08-20T10:56:12;93813.47;;;40.98;24.35
59367;BME280;45163;47.690;11.770;2023-08-20T10:58:46;93802.88;;;41.00;24.61
59367;BME280;45163;47.690;11.770;2023-08-20T11:03:43;93807.28;;;40.66;24.09
59367;BME280;45163;47.690;11.770;2023-08-20T11:06:09;93812.84;;;40.29;25.12
59367;BME280;45163;47.690;11.770;2023-08-20T11:08:36;93811.50;;;40.65;24.05
59367;BME280;45163;47.690;11.770;2023-08-20T11:11:02;93804.00;;;40.83;23.78
59367;BME280;45163;47.690;11.770;2023-08-20T11:13:32;93814.22;;;40.40;24.35
59367;BME280;45163;47.690;11.770;2023-08-20T11:15:59;93804.50;;;39.65;24.89
59367;BME280;45163;47.690;11.770;2023-08-20T11:18:25;93808.78;;;39.87;25.26
59367;BME280;45163;47.690;11.770;2023-08-20T11:20:51;93815.94;;;39.65;24.98
59367;BME280;45163;47.690;11.770;2023-08-20T11:23:17;93807.16;;;39.39;25.51
59367;BME280;45163;47.690;11.770;2023-08-20T11:25:43;93805.72;;;39.28;27.29
59367;BME280;45163;47.690;11.770;2023-08-20T11:28:09;93809.69;;;39.56;26.40
59367;BME280;45163;47.690;11.770;2023-08-20T11:30:35;93806.16;;;39.79;26.98
59367;BME280;45163;47.690;11.770;2023-08-20T11:33:01;93803.50;;;40.05;26.10
59367;BME280;45163;47.690;11.770;2023-08-20T11:35:28;93806.63;;;40.32;27.13
59367;BME280;45163;47.690;11.770;2023-08-20T11:37:54;93805.16;;;40.55;25.46
59367;BME280;45163;47.690;11.770;2023-08-20T11:40:21;93801.94;;;41.21;24.04
59367;BME280;45163;47.690;11.770;2023-08-20T11:42:48;93806.84;;;40.95;25.42
59367;BME280;45163;47.690;11.770;2023-08-20T11:45:14;93805.94;;;39.87;23.86
59367;BME280;45163;47.690;11.770;2023-08-20T11:47:41;93810.66;;;39.49;25.24
59367;BME280;45163;47.690;11.770;2023-08-20T11:50:09;93811.75;;;39.44;25.92
59367;BME280;45163;47.690;11.770;2023-08-20T11:52:36;93799.63;;;38.79;27.75
59367;BME280;45163;47.690;11.770;2023-08-20T11:55:03;93805.25;;;39.10;27.47
59367;BME280;45163;47.690;11.770;2023-08-20T11:57:29;93806.00;;;39.11;28.14
59367;BME280;45163;47.690;11.770;2023-08-20T12:00:03;93802.66;;;39.36;26.79
59367;BME280;45163;47.690;11.770;2023-08-20T12:02:42;93801.03;;;39.66;28.10
59367;BME280;45163;47.690;11.770;2023-08-20T12:05:08;93802.09;;;39.49;27.88
59367;BME280;45163;47.690;11.770;2023-08-20T12:07:34;93801.63;;;40.09;26.96
59367;BME280;45163;47.690;11.770;2023-08-20T12:10:19;93808.56;;;39.95;27.17
59367;BME280;45163;47.690;11.770;2023-08-20T12:12:45;93810.88;;;40.20;28.95
59367;BME280;45163;47.690;11.770;2023-08-20T12:15:11;93805.19;;;39.87;28.65
59367;BME280;45163;47.690;11.770;2023-08-20T12:17:37;93800.63;;;39.60;28.09
59367;BME280;45163;47.690;11.770;2023-08-20T12:20:03;93803.72;;;39.86;27.29
59367;BME280;45163;47.690;11.770;2023-08-20T12:22:41;93802.31;;;39.75;28.11
59367;BME280;45163;47.690;11.770;2023-08-20T12:25:07;93805.75;;;38.85;27.53
59367;BME280;45163;47.690;11.770;2023-08-20T12:27:34;93805.25;;;38.68;28.23
59367;BME280;45163;47.690;11.770;2023-08-20T12:29:59;93787.84;;;39.06;26.07
59367;BME280;45163;47.690;11.770;2023-08-20T12:32:25;93803.94;;;39.45;25.37
59367;BME280;45163;47.690;11.770;2023-08-20T12:34:51;93793.56;;;39.06;26.55
59367;BME280;45163;47.690;11.770;2023-08-20T12:37:17;93791.75;;;38.90;25.57
59367;BME280;45163;47.690;11.770;2023-08-20T12:39:43;93795.34;;;38.90;26.68
59367;BME280;45163;47.690;11.770;2023-08-20T12:42:09;93800.44;;;39.13;24.77
59367;BME280;45163;47.690;11.770;2023-08-20T12:44:35;93794.47;;;39.75;24.90
59367;BME280;45163;47.690;11.770;2023-08-20T12:47:01;93787.75;;;40.27;25.45
59367;BME280;45163;47.690;11.770;2023-08-20T12:49:27;93792.56;;;40.13;25.53
59367;BME280;45163;47.690;11.770;2023-08-20T12:51:53;93781.94;;;41.10;24.04
59367;BME280;45163;47.690;11.770;2023-08-20T12:54:19;93787.38;;;40.56;25.61
59367;BME280;45163;47.690;11.770;2023-08-20T12:56:45;93783.91;;;41.56;23.77
59367;BME280;45163;47.690;11.770;2023-08-20T12:59:11;93782.47;;;40.82;25.01